Mount Pleasant, Ohio
Current Conditions -  °F | °C
As of 3:53 AM on Sunday 26 Oct 2014 (Local Time) from KHLG Reporting Station
Clear Clear  
Wind Chill: 51°   Ceiling: Unl
Heat Index: 51°   Visibility: 10mi
Dew Point: 30°   Wind: 7mph
Humidity: 44%   Direction: 260°W
Pressure: 29.83"   Gusts: NA
Location:  40.18°N, 80.8°W
Report Text: KHLG 260753Z AUTO 26006KT 10SM CLR 11/M01 A2983 RMK AO2 SLP102 T01061011
Loading
Personal Weather Stations






























Interactive Weather Map
Tropical Storm Tracking
New forecast layout! Learn more

10-Day Weather Forecast

Advertisements
Track Severe Weather on mobile